This is the latest recevied weather packets stored in our database for station/object G6LTT-13. If no packets are shown the sender has not sent any weather packets the latest 1 day(s).
| Time | Temp. | Humidity | Pressure | Rain* | Wind** | Luminosity | Snow |
|---|---|---|---|---|---|---|---|
| 1778110480 | 7.78° C | 86% | 1043.4 hPa | 0 mm | - | - | - |
| 1778103280 | 8.89° C | 79% | 1043.3 hPa | 0 mm | - | - | - |
| 1778101480 | 9.44° C | 77% | 1043 hPa | 0 mm | - | - | - |
| 1778099680 | 9.44° C | 74% | 1043.1 hPa | 0 mm | - | - | - |
| 1778096080 | 10.56° C | 68% | 1042.4 hPa | 0 mm | - | - | - |
| 1778092480 | 11.67° C | 62% | 1042.3 hPa | 0 mm | - | - | - |
| 1778088880 | 12.22° C | 59% | 1041.6 hPa | 0 mm | - | - | - |
| 1778085280 | 13.33° C | 53% | 1041.4 hPa | 0 mm | - | - | - |
| 1778083480 | 13.33° C | 53% | 1041.4 hPa | 0 mm | - | - | - |
| 1778076280 | 12.22° C | 59% | 1041.6 hPa | 0 mm | - | - | - |
| 1778074480 | 13.33° C | 60% | 1041.6 hPa | 0 mm | - | - | - |
| 1778072680 | 12.78° C | 59% | 1041.7 hPa | 0 mm | - | - | - |
| 1778070880 | 11.67° C | 62% | 1041.8 hPa | 0 mm | - | - | - |
| 1778069080 | 11.67° C | 64% | 1042 hPa | 0 mm | - | - | - |
| 1778067280 | 11.67° C | 62% | 1041.7 hPa | 0 mm | - | - | - |
| 1778065480 | 12.22° C | 61% | 1041.5 hPa | 0 mm | - | - | - |
| 1778063680 | 11.67° C | 62% | 1041.8 hPa | 0 mm | - | - | - |
| 1778061880 | 11.67° C | 60% | 1041.9 hPa | 0 mm | - | - | - |
| 1778060080 | 11.11° C | 60% | 1041.8 hPa | 0 mm | - | - | - |
| 1778058280 | 10.56° C | 62% | 1041.7 hPa | 0 mm | - | - | - |
| 1778056480 | 10.56° C | 65% | 1041.2 hPa | 0 mm | - | - | - |
| 1778054680 | 9.44° C | 68% | 1041.5 hPa | 0 mm | - | - | - |
| 1778052880 | 9.44° C | 70% | 1041.4 hPa | 0 mm | - | - | - |
| 1778051080 | 9.44° C | 70% | 1041.3 hPa | 0 mm | - | - | - |
| 1778049280 | 8.33° C | 76% | 1041.4 hPa | 0 mm | - | - | - |
* Rain latest hour (hover to see other rain measurements)
** Current wind speed in m/s (hover to see current wind gust speed)